Centerdale, Rhode Island
Current Conditions -  °F | °C
As of 12:35 PM on Friday 24 Oct 2014 (Local Time) from KSFZ Reporting Station
Overcast Overcast  
Wind Chill: 52°   Ceiling: 1600
Heat Index: 52°   Visibility: 10mi
Dew Point: 39°   Wind: 10mph
Humidity: 62%   Direction: 330°NNW
Pressure: 29.7"   Gusts: 18mph
Location:  41.8539°N, 71.4734°W
Report Text: KSFZ 241635Z 33009G16KT 10SM OVC016 11/04 A2970 RMK AO1
Loading
Personal Weather Stations






























Interactive Weather Map
Tropical Storm Tracking
New forecast layout! Learn more

10-Day Weather Forecast

Advertisements
Track Severe Weather on mobile